Furqlus, Syria
Current Conditions -  °F | °C
As of 3:00 AM on Saturday 25 Oct 2014 (Local Time) from OSDI Reporting Station
Clear Clear  
Wind Chill: 52°   Ceiling: Unl
Heat Index: 52°   Visibility: 6mi
Dew Point: 41°   Wind: 5mph
Humidity: 67%   Direction: 360°N
Pressure: 30.12"   Gusts: NA
Location:  34.6°N, 37.08°E
Report Text: OSDI 250000Z 36004KT CAVOK 11/05 Q1020
Loading
Personal Weather Stations






























Interactive Weather Map New forecast layout! Learn more

10-Day Weather Forecast

Advertisements
Track Severe Weather on mobile